sensor_id;sensor_type;location;lat;lon;timestamp;temperature;humidity
39677;DHT22;27789;50.840;4.386;2024-01-15T00:02:06;2.70;99.90
39677;DHT22;27789;50.840;4.386;2024-01-15T00:04:38;2.70;99.90
39677;DHT22;27789;50.840;4.386;2024-01-15T00:07:04;2.70;99.90
39677;DHT22;27789;50.840;4.386;2024-01-15T00:09:29;2.60;99.90
39677;DHT22;27789;50.840;4.386;2024-01-15T00:11:55;2.70;99.90
39677;DHT22;27789;50.840;4.386;2024-01-15T00:14:20;2.70;99.90
39677;DHT22;27789;50.840;4.386;2024-01-15T00:16:46;2.70;99.90
39677;DHT22;27789;50.840;4.386;2024-01-15T00:19:12;2.70;99.90
39677;DHT22;27789;50.840;4.386;2024-01-15T00:21:37;4.30;99.90
39677;DHT22;27789;50.840;4.386;2024-01-15T00:24:03;2.70;99.90
39677;DHT22;27789;50.840;4.386;2024-01-15T00:26:28;2.80;99.90
39677;DHT22;27789;50.840;4.386;2024-01-15T00:28:54;2.80;99.90
39677;DHT22;27789;50.840;4.386;2024-01-15T00:31:19;2.80;99.90
39677;DHT22;27789;50.840;4.386;2024-01-15T00:33:45;2.80;99.90
39677;DHT22;27789;50.840;4.386;2024-01-15T00:36:11;2.70;99.90
39677;DHT22;27789;50.840;4.386;2024-01-15T00:38:36;2.70;99.90
39677;DHT22;27789;50.840;4.386;2024-01-15T00:41:02;2.70;99.90
39677;DHT22;27789;50.840;4.386;2024-01-15T00:43:28;2.80;99.90
39677;DHT22;27789;50.840;4.386;2024-01-15T00:45:53;2.70;99.90
39677;DHT22;27789;50.840;4.386;2024-01-15T00:48:19;2.80;99.90
39677;DHT22;27789;50.840;4.386;2024-01-15T00:50:44;2.70;99.90
39677;DHT22;27789;50.840;4.386;2024-01-15T00:53:10;2.80;99.90
39677;DHT22;27789;50.840;4.386;2024-01-15T00:55:35;2.80;99.90
39677;DHT22;27789;50.840;4.386;2024-01-15T00:58:02;2.90;99.90
39677;DHT22;27789;50.840;4.386;2024-01-15T01:00:28;2.80;99.90
39677;DHT22;27789;50.840;4.386;2024-01-15T01:02:53;2.90;99.90
39677;DHT22;27789;50.840;4.386;2024-01-15T01:05:19;2.90;99.90
39677;DHT22;27789;50.840;4.386;2024-01-15T01:07:44;3.00;99.90
39677;DHT22;27789;50.840;4.386;2024-01-15T01:10:09;3.00;99.90
39677;DHT22;27789;50.840;4.386;2024-01-15T01:12:36;3.00;99.90
39677;DHT22;27789;50.840;4.386;2024-01-15T01:15:01;3.10;99.90
39677;DHT22;27789;50.840;4.386;2024-01-15T01:17:27;3.10;99.90
39677;DHT22;27789;50.840;4.386;2024-01-15T01:19:52;3.10;99.90
39677;DHT22;27789;50.840;4.386;2024-01-15T01:22:17;3.10;99.90
39677;DHT22;27789;50.840;4.386;2024-01-15T01:24:43;3.10;99.90
39677;DHT22;27789;50.840;4.386;2024-01-15T01:27:08;3.20;99.90
39677;DHT22;27789;50.840;4.386;2024-01-15T01:29:34;3.20;99.90
39677;DHT22;27789;50.840;4.386;2024-01-15T01:32:00;3.20;99.90
39677;DHT22;27789;50.840;4.386;2024-01-15T01:34:25;3.20;99.90
39677;DHT22;27789;50.840;4.386;2024-01-15T01:36:51;3.20;99.90
39677;DHT22;27789;50.840;4.386;2024-01-15T01:39:16;3.20;99.90
39677;DHT22;27789;50.840;4.386;2024-01-15T01:41:42;3.10;99.90
39677;DHT22;27789;50.840;4.386;2024-01-15T01:44:08;3.20;99.90
39677;DHT22;27789;50.840;4.386;2024-01-15T01:46:33;3.10;99.90
39677;DHT22;27789;50.840;4.386;2024-01-15T01:48:59;3.10;99.90
39677;DHT22;27789;50.840;4.386;2024-01-15T01:51:30;3.10;99.90
39677;DHT22;27789;50.840;4.386;2024-01-15T01:53:56;3.10;99.90
39677;DHT22;27789;50.840;4.386;2024-01-15T01:56:21;3.10;99.90
39677;DHT22;27789;50.840;4.386;2024-01-15T01:58:47;3.10;99.90
39677;DHT22;27789;50.840;4.386;2024-01-15T02:01:13;3.20;99.90
39677;DHT22;27789;50.840;4.386;2024-01-15T02:03:39;3.20;99.90
39677;DHT22;27789;50.840;4.386;2024-01-15T02:06:05;3.10;99.90
39677;DHT22;27789;50.840;4.386;2024-01-15T02:08:31;3.20;99.90
39677;DHT22;27789;50.840;4.386;2024-01-15T02:10:56;3.20;99.90
39677;DHT22;27789;50.840;4.386;2024-01-15T02:13:22;3.20;99.90
39677;DHT22;27789;50.840;4.386;2024-01-15T02:15:47;3.20;99.90
39677;DHT22;27789;50.840;4.386;2024-01-15T02:18:13;3.20;99.90
39677;DHT22;27789;50.840;4.386;2024-01-15T02:20:38;3.20;99.90
39677;DHT22;27789;50.840;4.386;2024-01-15T02:23:10;3.20;99.90
39677;DHT22;27789;50.840;4.386;2024-01-15T02:25:42;3.20;99.90
39677;DHT22;27789;50.840;4.386;2024-01-15T02:28:10;3.20;99.90
39677;DHT22;27789;50.840;4.386;2024-01-15T02:30:36;3.20;99.90
39677;DHT22;27789;50.840;4.386;2024-01-15T02:33:03;3.30;99.90
39677;DHT22;27789;50.840;4.386;2024-01-15T02:35:28;3.30;99.90
39677;DHT22;27789;50.840;4.386;2024-01-15T02:37:54;3.20;99.90
39677;DHT22;27789;50.840;4.386;2024-01-15T02:40:19;3.20;99.90
39677;DHT22;27789;50.840;4.386;2024-01-15T02:42:45;3.20;99.90
39677;DHT22;27789;50.840;4.386;2024-01-15T02:45:10;3.20;99.90
39677;DHT22;27789;50.840;4.386;2024-01-15T02:47:35;3.20;99.90
39677;DHT22;27789;50.840;4.386;2024-01-15T02:50:01;3.20;99.90
39677;DHT22;27789;50.840;4.386;2024-01-15T02:52:26;3.20;99.90
39677;DHT22;27789;50.840;4.386;2024-01-15T02:54:52;3.20;99.90
39677;DHT22;27789;50.840;4.386;2024-01-15T02:57:17;3.20;99.90
39677;DHT22;27789;50.840;4.386;2024-01-15T02:59:43;3.20;99.90
39677;DHT22;27789;50.840;4.386;2024-01-15T03:02:08;3.20;99.90
39677;DHT22;27789;50.840;4.386;2024-01-15T03:04:34;3.20;99.90
39677;DHT22;27789;50.840;4.386;2024-01-15T03:06:59;3.20;99.90
39677;DHT22;27789;50.840;4.386;2024-01-15T03:09:24;3.30;99.90
39677;DHT22;27789;50.840;4.386;2024-01-15T03:11:50;3.20;99.90
39677;DHT22;27789;50.840;4.386;2024-01-15T03:14:15;3.20;99.90
39677;DHT22;27789;50.840;4.386;2024-01-15T03:16:41;3.20;99.90
39677;DHT22;27789;50.840;4.386;2024-01-15T03:19:07;3.20;99.90
39677;DHT22;27789;50.840;4.386;2024-01-15T03:21:35;3.20;99.90
39677;DHT22;27789;50.840;4.386;2024-01-15T03:24:00;5.00;99.90
39677;DHT22;27789;50.840;4.386;2024-01-15T03:26:26;3.20;99.90
39677;DHT22;27789;50.840;4.386;2024-01-15T03:28:51;3.30;99.90
39677;DHT22;27789;50.840;4.386;2024-01-15T03:31:17;3.20;99.90
39677;DHT22;27789;50.840;4.386;2024-01-15T03:33:42;3.30;99.90
39677;DHT22;27789;50.840;4.386;2024-01-15T03:36:08;3.30;99.90
39677;DHT22;27789;50.840;4.386;2024-01-15T03:38:33;3.30;99.90
39677;DHT22;27789;50.840;4.386;2024-01-15T03:40:59;3.30;99.90
39677;DHT22;27789;50.840;4.386;2024-01-15T03:43:25;3.30;99.90
39677;DHT22;27789;50.840;4.386;2024-01-15T03:45:51;3.30;99.90
39677;DHT22;27789;50.840;4.386;2024-01-15T03:48:18;3.30;99.90
39677;DHT22;27789;50.840;4.386;2024-01-15T03:50:43;3.30;99.90
39677;DHT22;27789;50.840;4.386;2024-01-15T03:53:08;3.30;99.90
39677;DHT22;27789;50.840;4.386;2024-01-15T03:55:34;3.30;99.90
39677;DHT22;27789;50.840;4.386;2024-01-15T03:57:59;3.30;99.90
39677;DHT22;27789;50.840;4.386;2024-01-15T04:00:25;3.20;99.90
39677;DHT22;27789;50.840;4.386;2024-01-15T04:02:50;3.20;99.90
39677;DHT22;27789;50.840;4.386;2024-01-15T04:05:16;3.20;99.90
39677;DHT22;27789;50.840;4.386;2024-01-15T04:07:41;3.20;99.90
39677;DHT22;27789;50.840;4.386;2024-01-15T04:10:07;3.10;99.90
39677;DHT22;27789;50.840;4.386;2024-01-15T04:12:32;3.00;99.90
39677;DHT22;27789;50.840;4.386;2024-01-15T04:14:58;3.10;99.90
39677;DHT22;27789;50.840;4.386;2024-01-15T04:17:23;3.10;99.90
39677;DHT22;27789;50.840;4.386;2024-01-15T04:19:49;3.10;99.90
39677;DHT22;27789;50.840;4.386;2024-01-15T04:22:14;3.10;99.90
39677;DHT22;27789;50.840;4.386;2024-01-15T04:24:40;3.10;99.90
39677;DHT22;27789;50.840;4.386;2024-01-15T04:27:05;3.20;99.90
39677;DHT22;27789;50.840;4.386;2024-01-15T04:29:31;3.20;99.90
39677;DHT22;27789;50.840;4.386;2024-01-15T04:31:57;3.20;99.90
39677;DHT22;27789;50.840;4.386;2024-01-15T04:34:22;3.10;99.90
39677;DHT22;27789;50.840;4.386;2024-01-15T04:36:47;3.10;99.90
39677;DHT22;27789;50.840;4.386;2024-01-15T04:39:13;3.20;99.90
39677;DHT22;27789;50.840;4.386;2024-01-15T04:41:38;3.20;99.90
39677;DHT22;27789;50.840;4.386;2024-01-15T04:44:04;3.20;99.90
39677;DHT22;27789;50.840;4.386;2024-01-15T04:46:29;3.20;99.90
39677;DHT22;27789;50.840;4.386;2024-01-15T04:48:55;3.20;99.90
39677;DHT22;27789;50.840;4.386;2024-01-15T04:51:20;3.10;99.90
39677;DHT22;27789;50.840;4.386;2024-01-15T04:53:46;3.20;99.90
39677;DHT22;27789;50.840;4.386;2024-01-15T04:56:11;3.20;99.90
39677;DHT22;27789;50.840;4.386;2024-01-15T04:58:36;3.20;99.90
39677;DHT22;27789;50.840;4.386;2024-01-15T05:01:02;3.30;99.90
39677;DHT22;27789;50.840;4.386;2024-01-15T05:03:28;3.30;99.90
39677;DHT22;27789;50.840;4.386;2024-01-15T05:05:53;3.30;99.90
39677;DHT22;27789;50.840;4.386;2024-01-15T05:08:19;3.30;99.90
39677;DHT22;27789;50.840;4.386;2024-01-15T05:10:44;3.40;99.90
39677;DHT22;27789;50.840;4.386;2024-01-15T05:13:10;3.40;99.90
39677;DHT22;27789;50.840;4.386;2024-01-15T05:15:35;3.40;99.90
39677;DHT22;27789;50.840;4.386;2024-01-15T05:18:01;3.30;99.90
39677;DHT22;27789;50.840;4.386;2024-01-15T05:20:26;3.30;99.90
39677;DHT22;27789;50.840;4.386;2024-01-15T05:22:52;3.30;99.90
39677;DHT22;27789;50.840;4.386;2024-01-15T05:25:17;3.30;99.90
39677;DHT22;27789;50.840;4.386;2024-01-15T05:27:43;3.20;99.90
39677;DHT22;27789;50.840;4.386;2024-01-15T05:30:08;3.20;99.90
39677;DHT22;27789;50.840;4.386;2024-01-15T05:32:34;3.20;99.90
39677;DHT22;27789;50.840;4.386;2024-01-15T05:34:59;3.10;99.90
39677;DHT22;27789;50.840;4.386;2024-01-15T05:37:25;3.10;99.90
39677;DHT22;27789;50.840;4.386;2024-01-15T05:39:50;3.10;99.90
39677;DHT22;27789;50.840;4.386;2024-01-15T05:42:15;3.10;99.90
39677;DHT22;27789;50.840;4.386;2024-01-15T05:44:41;3.10;99.90
39677;DHT22;27789;50.840;4.386;2024-01-15T05:47:07;3.10;99.90
39677;DHT22;27789;50.840;4.386;2024-01-15T05:49:33;3.00;99.90
39677;DHT22;27789;50.840;4.386;2024-01-15T05:51:58;3.10;99.90
39677;DHT22;27789;50.840;4.386;2024-01-15T05:54:23;3.00;99.90
39677;DHT22;27789;50.840;4.386;2024-01-15T05:56:49;3.10;99.90
39677;DHT22;27789;50.840;4.386;2024-01-15T05:59:15;3.10;99.90
39677;DHT22;27789;50.840;4.386;2024-01-15T06:01:40;3.10;99.90
39677;DHT22;27789;50.840;4.386;2024-01-15T06:04:05;3.10;99.90
39677;DHT22;27789;50.840;4.386;2024-01-15T06:06:32;3.10;99.90
39677;DHT22;27789;50.840;4.386;2024-01-15T06:08:57;3.10;99.90
39677;DHT22;27789;50.840;4.386;2024-01-15T06:11:29;3.10;99.90
39677;DHT22;27789;50.840;4.386;2024-01-15T06:13:54;3.10;99.90
39677;DHT22;27789;50.840;4.386;2024-01-15T06:16:20;3.20;99.90
39677;DHT22;27789;50.840;4.386;2024-01-15T06:18:46;3.10;99.90
39677;DHT22;27789;50.840;4.386;2024-01-15T06:21:12;3.20;99.90
39677;DHT22;27789;50.840;4.386;2024-01-15T06:23:39;3.20;99.90
39677;DHT22;27789;50.840;4.386;2024-01-15T06:26:05;3.10;99.90
39677;DHT22;27789;50.840;4.386;2024-01-15T06:28:30;3.10;99.90
39677;DHT22;27789;50.840;4.386;2024-01-15T06:30:56;3.10;99.90
39677;DHT22;27789;50.840;4.386;2024-01-15T06:33:22;3.00;99.90
39677;DHT22;27789;50.840;4.386;2024-01-15T06:35:47;3.00;99.90
39677;DHT22;27789;50.840;4.386;2024-01-15T06:38:14;2.90;99.90
39677;DHT22;27789;50.840;4.386;2024-01-15T06:40:40;2.90;99.90
39677;DHT22;27789;50.840;4.386;2024-01-15T06:43:11;2.80;99.90
39677;DHT22;27789;50.840;4.386;2024-01-15T06:45:36;2.80;99.90
39677;DHT22;27789;50.840;4.386;2024-01-15T06:48:01;2.80;99.90
39677;DHT22;27789;50.840;4.386;2024-01-15T06:50:27;2.70;99.90
39677;DHT22;27789;50.840;4.386;2024-01-15T06:52:53;2.70;99.90
39677;DHT22;27789;50.840;4.386;2024-01-15T06:55:18;2.70;99.90
39677;DHT22;27789;50.840;4.386;2024-01-15T06:57:43;2.70;99.90
39677;DHT22;27789;50.840;4.386;2024-01-15T07:00:09;2.70;99.90
39677;DHT22;27789;50.840;4.386;2024-01-15T07:02:35;2.70;99.90
39677;DHT22;27789;50.840;4.386;2024-01-15T07:05:01;2.70;99.90
39677;DHT22;27789;50.840;4.386;2024-01-15T07:07:26;2.70;99.90
39677;DHT22;27789;50.840;4.386;2024-01-15T07:09:55;2.70;99.90
39677;DHT22;27789;50.840;4.386;2024-01-15T07:12:20;2.70;99.90
39677;DHT22;27789;50.840;4.386;2024-01-15T07:14:46;2.70;99.90
39677;DHT22;27789;50.840;4.386;2024-01-15T07:17:12;2.80;99.90
39677;DHT22;27789;50.840;4.386;2024-01-15T07:19:37;2.70;99.90
39677;DHT22;27789;50.840;4.386;2024-01-15T07:22:06;2.70;99.90
39677;DHT22;27789;50.840;4.386;2024-01-15T07:24:32;2.60;99.90
39677;DHT22;27789;50.840;4.386;2024-01-15T07:26:59;2.70;99.90
39677;DHT22;27789;50.840;4.386;2024-01-15T07:29:25;2.70;99.90
39677;DHT22;27789;50.840;4.386;2024-01-15T07:31:51;2.60;99.90
39677;DHT22;27789;50.840;4.386;2024-01-15T07:34:17;2.60;99.90
39677;DHT22;27789;50.840;4.386;2024-01-15T07:36:45;2.60;99.90
39677;DHT22;27789;50.840;4.386;2024-01-15T07:39:11;2.60;99.90
39677;DHT22;27789;50.840;4.386;2024-01-15T07:41:36;4.60;99.90
39677;DHT22;27789;50.840;4.386;2024-01-15T07:44:02;2.50;99.90
39677;DHT22;27789;50.840;4.386;2024-01-15T07:46:28;2.50;99.90
39677;DHT22;27789;50.840;4.386;2024-01-15T07:48:53;2.50;99.90
39677;DHT22;27789;50.840;4.386;2024-01-15T07:51:22;2.50;99.90
39677;DHT22;27789;50.840;4.386;2024-01-15T07:53:47;2.50;99.90
39677;DHT22;27789;50.840;4.386;2024-01-15T07:56:13;2.50;99.90
39677;DHT22;27789;50.840;4.386;2024-01-15T07:58:38;2.40;99.90
39677;DHT22;27789;50.840;4.386;2024-01-15T08:01:04;2.50;99.90
39677;DHT22;27789;50.840;4.386;2024-01-15T08:03:29;2.50;99.90
39677;DHT22;27789;50.840;4.386;2024-01-15T08:05:55;2.50;99.90
39677;DHT22;27789;50.840;4.386;2024-01-15T08:08:22;2.50;99.90
39677;DHT22;27789;50.840;4.386;2024-01-15T08:10:54;2.50;99.90
39677;DHT22;27789;50.840;4.386;2024-01-15T08:13:20;4.80;99.90
39677;DHT22;27789;50.840;4.386;2024-01-15T08:15:46;2.60;99.90
39677;DHT22;27789;50.840;4.386;2024-01-15T08:18:11;2.60;99.90
39677;DHT22;27789;50.840;4.386;2024-01-15T08:20:37;2.70;99.90
39677;DHT22;27789;50.840;4.386;2024-01-15T08:23:02;2.70;99.90
39677;DHT22;27789;50.840;4.386;2024-01-15T08:25:28;2.80;99.90
39677;DHT22;27789;50.840;4.386;2024-01-15T08:27:54;2.90;99.90
39677;DHT22;27789;50.840;4.386;2024-01-15T08:30:19;3.00;99.90
39677;DHT22;27789;50.840;4.386;2024-01-15T08:32:45;3.00;99.90
39677;DHT22;27789;50.840;4.386;2024-01-15T08:35:11;3.10;99.90
39677;DHT22;27789;50.840;4.386;2024-01-15T08:37:36;4.50;99.90
39677;DHT22;27789;50.840;4.386;2024-01-15T08:40:02;3.20;99.90
39677;DHT22;27789;50.840;4.386;2024-01-15T08:42:28;3.30;99.90
39677;DHT22;27789;50.840;4.386;2024-01-15T08:44:54;3.40;99.90
39677;DHT22;27789;50.840;4.386;2024-01-15T08:47:19;3.40;99.90
39677;DHT22;27789;50.840;4.386;2024-01-15T08:49:45;3.50;99.90
39677;DHT22;27789;50.840;4.386;2024-01-15T08:52:11;3.50;99.90
39677;DHT22;27789;50.840;4.386;2024-01-15T08:54:37;3.60;99.90
39677;DHT22;27789;50.840;4.386;2024-01-15T08:57:02;3.70;99.90
39677;DHT22;27789;50.840;4.386;2024-01-15T08:59:28;4.90;99.90
39677;DHT22;27789;50.840;4.386;2024-01-15T09:01:53;3.70;99.90
39677;DHT22;27789;50.840;4.386;2024-01-15T09:04:19;3.70;99.90
39677;DHT22;27789;50.840;4.386;2024-01-15T09:06:45;3.80;99.90
39677;DHT22;27789;50.840;4.386;2024-01-15T09:09:12;3.80;99.90
39677;DHT22;27789;50.840;4.386;2024-01-15T09:11:37;3.70;99.90
39677;DHT22;27789;50.840;4.386;2024-01-15T09:14:03;3.80;99.90
39677;DHT22;27789;50.840;4.386;2024-01-15T09:16:28;3.90;99.90
39677;DHT22;27789;50.840;4.386;2024-01-15T09:18:54;3.90;99.90
39677;DHT22;27789;50.840;4.386;2024-01-15T09:21:22;3.80;99.90
39677;DHT22;27789;50.840;4.386;2024-01-15T09:23:47;3.70;99.90
39677;DHT22;27789;50.840;4.386;2024-01-15T09:26:13;5.20;99.90
39677;DHT22;27789;50.840;4.386;2024-01-15T09:28:38;3.70;99.90
39677;DHT22;27789;50.840;4.386;2024-01-15T09:31:03;3.70;99.90
39677;DHT22;27789;50.840;4.386;2024-01-15T09:33:29;3.80;99.90
39677;DHT22;27789;50.840;4.386;2024-01-15T09:35:55;3.80;99.90
39677;DHT22;27789;50.840;4.386;2024-01-15T09:38:20;3.90;99.90
39677;DHT22;27789;50.840;4.386;2024-01-15T09:40:46;3.90;99.90
39677;DHT22;27789;50.840;4.386;2024-01-15T09:43:12;4.00;99.90
39677;DHT22;27789;50.840;4.386;2024-01-15T09:45:38;4.10;99.90
39677;DHT22;27789;50.840;4.386;2024-01-15T09:48:04;4.10;99.90
39677;DHT22;27789;50.840;4.386;2024-01-15T09:50:29;4.20;99.90
39677;DHT22;27789;50.840;4.386;2024-01-15T09:52:55;4.20;99.90
39677;DHT22;27789;50.840;4.386;2024-01-15T09:55:22;4.20;99.90
39677;DHT22;27789;50.840;4.386;2024-01-15T09:57:48;4.40;99.90
39677;DHT22;27789;50.840;4.386;2024-01-15T10:00:14;5.70;99.90
39677;DHT22;27789;50.840;4.386;2024-01-15T10:02:42;4.80;99.90
39677;DHT22;27789;50.840;4.386;2024-01-15T10:05:08;4.90;99.90
39677;DHT22;27789;50.840;4.386;2024-01-15T10:07:34;5.30;99.90
39677;DHT22;27789;50.840;4.386;2024-01-15T10:10:00;5.50;99.90
39677;DHT22;27789;50.840;4.386;2024-01-15T10:12:25;5.80;99.90
39677;DHT22;27789;50.840;4.386;2024-01-15T10:14:52;6.40;99.90
39677;DHT22;27789;50.840;4.386;2024-01-15T10:17:17;6.00;99.90
39677;DHT22;27789;50.840;4.386;2024-01-15T10:19:45;5.90;99.90
39677;DHT22;27789;50.840;4.386;2024-01-15T10:22:10;5.90;99.90
39677;DHT22;27789;50.840;4.386;2024-01-15T10:24:36;5.90;99.90
39677;DHT22;27789;50.840;4.386;2024-01-15T10:27:06;6.00;99.90
39677;DHT22;27789;50.840;4.386;2024-01-15T10:29:32;6.50;99.90
39677;DHT22;27789;50.840;4.386;2024-01-15T10:31:57;7.30;99.90
39677;DHT22;27789;50.840;4.386;2024-01-15T10:34:23;7.10;99.90
39677;DHT22;27789;50.840;4.386;2024-01-15T10:36:49;7.50;99.90
39677;DHT22;27789;50.840;4.386;2024-01-15T10:39:23;8.10;99.90
39677;DHT22;27789;50.840;4.386;2024-01-15T10:41:49;8.50;99.90
39677;DHT22;27789;50.840;4.386;2024-01-15T10:44:16;8.70;99.90
39677;DHT22;27789;50.840;4.386;2024-01-15T10:46:41;8.20;99.90
39677;DHT22;27789;50.840;4.386;2024-01-15T10:49:07;9.10;99.90
39677;DHT22;27789;50.840;4.386;2024-01-15T10:51:33;10.40;99.90
39677;DHT22;27789;50.840;4.386;2024-01-15T10:53:59;11.30;99.50
39677;DHT22;27789;50.840;4.386;2024-01-15T10:56:25;11.80;98.20
39677;DHT22;27789;50.840;4.386;2024-01-15T10:58:51;11.50;97.40
39677;DHT22;27789;50.840;4.386;2024-01-15T11:01:16;11.70;97.40
39677;DHT22;27789;50.840;4.386;2024-01-15T11:03:43;11.90;97.20
39677;DHT22;27789;50.840;4.386;2024-01-15T11:06:18;12.40;96.60
39677;DHT22;27789;50.840;4.386;2024-01-15T11:08:50;12.60;97.20
39677;DHT22;27789;50.840;4.386;2024-01-15T11:11:16;13.30;96.30
39677;DHT22;27789;50.840;4.386;2024-01-15T11:13:42;12.90;95.80
39677;DHT22;27789;50.840;4.386;2024-01-15T11:16:11;10.80;96.90
39677;DHT22;27789;50.840;4.386;2024-01-15T11:28:55;8.30;99.90
39677;DHT22;27789;50.840;4.386;2024-01-15T11:31:28;7.90;99.90
39677;DHT22;27789;50.840;4.386;2024-01-15T11:33:53;7.80;99.90
39677;DHT22;27789;50.840;4.386;2024-01-15T11:36:20;7.70;99.90
39677;DHT22;27789;50.840;4.386;2024-01-15T11:38:46;7.40;99.90
39677;DHT22;27789;50.840;4.386;2024-01-15T11:41:14;7.50;99.90
39677;DHT22;27789;50.840;4.386;2024-01-15T11:43:41;7.70;99.90
39677;DHT22;27789;50.840;4.386;2024-01-15T11:46:08;7.90;99.90
39677;DHT22;27789;50.840;4.386;2024-01-15T11:48:41;8.10;99.90
39677;DHT22;27789;50.840;4.386;2024-01-15T11:51:08;8.70;99.50
39677;DHT22;27789;50.840;4.386;2024-01-15T11:53:45;9.30;98.90
39677;DHT22;27789;50.840;4.386;2024-01-15T11:56:16;9.40;98.40
39677;DHT22;27789;50.840;4.386;2024-01-15T11:58:42;9.90;98.50
39677;DHT22;27789;50.840;4.386;2024-01-15T12:01:08;9.80;98.70
39677;DHT22;27789;50.840;4.386;2024-01-15T12:03:34;9.30;98.20
39677;DHT22;27789;50.840;4.386;2024-01-15T12:06:00;8.90;99.30
39677;DHT22;27789;50.840;4.386;2024-01-15T12:08:25;8.80;99.20
39677;DHT22;27789;50.840;4.386;2024-01-15T12:10:52;8.50;99.20
39677;DHT22;27789;50.840;4.386;2024-01-15T12:13:18;9.20;99.80
39677;DHT22;27789;50.840;4.386;2024-01-15T12:15:44;11.50;96.80
39677;DHT22;27789;50.840;4.386;2024-01-15T12:18:10;11.50;96.70
39677;DHT22;27789;50.840;4.386;2024-01-15T12:20:36;11.00;96.60
39677;DHT22;27789;50.840;4.386;2024-01-15T12:23:02;10.70;97.40
39677;DHT22;27789;50.840;4.386;2024-01-15T12:25:31;11.20;96.70
39677;DHT22;27789;50.840;4.386;2024-01-15T12:27:57;11.00;97.30
39677;DHT22;27789;50.840;4.386;2024-01-15T12:30:22;10.40;97.10
39677;DHT22;27789;50.840;4.386;2024-01-15T12:32:48;9.70;97.30
39677;DHT22;27789;50.840;4.386;2024-01-15T12:35:13;9.20;98.00
39677;DHT22;27789;50.840;4.386;2024-01-15T12:37:39;8.80;99.30
39677;DHT22;27789;50.840;4.386;2024-01-15T12:40:06;8.40;98.70
39677;DHT22;27789;50.840;4.386;2024-01-15T12:42:37;8.10;99.70
39677;DHT22;27789;50.840;4.386;2024-01-15T12:45:08;7.80;99.90
39677;DHT22;27789;50.840;4.386;2024-01-15T12:47:34;7.60;99.90
39677;DHT22;27789;50.840;4.386;2024-01-15T12:49:59;7.30;99.90
39677;DHT22;27789;50.840;4.386;2024-01-15T12:52:28;7.10;99.90
39677;DHT22;27789;50.840;4.386;2024-01-15T12:54:54;6.90;99.90
39677;DHT22;27789;50.840;4.386;2024-01-15T12:57:19;6.80;99.90
39677;DHT22;27789;50.840;4.386;2024-01-15T12:59:45;6.70;99.90
39677;DHT22;27789;50.840;4.386;2024-01-15T13:02:14;6.60;99.90
39677;DHT22;27789;50.840;4.386;2024-01-15T13:04:39;6.50;99.90
39677;DHT22;27789;50.840;4.386;2024-01-15T13:07:08;6.50;99.90
39677;DHT22;27789;50.840;4.386;2024-01-15T13:09:34;6.50;99.90
39677;DHT22;27789;50.840;4.386;2024-01-15T13:12:00;6.40;99.90
39677;DHT22;27789;50.840;4.386;2024-01-15T13:14:26;6.40;99.90
39677;DHT22;27789;50.840;4.386;2024-01-15T13:16:52;6.20;99.90
39677;DHT22;27789;50.840;4.386;2024-01-15T13:19:19;6.10;99.90
39677;DHT22;27789;50.840;4.386;2024-01-15T13:21:44;6.10;99.90
39677;DHT22;27789;50.840;4.386;2024-01-15T13:24:10;7.00;99.90
39677;DHT22;27789;50.840;4.386;2024-01-15T13:26:36;6.80;99.90
39677;DHT22;27789;50.840;4.386;2024-01-15T13:29:02;8.80;99.90
39677;DHT22;27789;50.840;4.386;2024-01-15T13:31:29;6.60;99.90
39677;DHT22;27789;50.840;4.386;2024-01-15T13:33:54;6.50;99.90
39677;DHT22;27789;50.840;4.386;2024-01-15T13:36:21;6.40;99.90
39677;DHT22;27789;50.840;4.386;2024-01-15T13:38:47;7.90;99.90
39677;DHT22;27789;50.840;4.386;2024-01-15T13:41:13;6.20;99.90
39677;DHT22;27789;50.840;4.386;2024-01-15T13:43:40;6.30;99.90
39677;DHT22;27789;50.840;4.386;2024-01-15T13:46:05;6.30;99.90
39677;DHT22;27789;50.840;4.386;2024-01-15T13:48:31;6.30;99.90
39677;DHT22;27789;50.840;4.386;2024-01-15T13:50:57;6.40;99.90
39677;DHT22;27789;50.840;4.386;2024-01-15T13:53:24;6.40;99.90
39677;DHT22;27789;50.840;4.386;2024-01-15T13:55:50;6.50;99.90
39677;DHT22;27789;50.840;4.386;2024-01-15T13:58:15;6.50;99.90
39677;DHT22;27789;50.840;4.386;2024-01-15T14:00:41;6.50;99.90
39677;DHT22;27789;50.840;4.386;2024-01-15T14:03:06;6.40;99.90
39677;DHT22;27789;50.840;4.386;2024-01-15T14:05:32;6.40;99.90
39677;DHT22;27789;50.840;4.386;2024-01-15T14:07:57;6.30;99.90
39677;DHT22;27789;50.840;4.386;2024-01-15T14:10:24;6.20;99.90
39677;DHT22;27789;50.840;4.386;2024-01-15T14:12:49;6.00;99.90
39677;DHT22;27789;50.840;4.386;2024-01-15T14:17:40;5.80;99.90
39677;DHT22;27789;50.840;4.386;2024-01-15T14:20:06;5.80;99.90
39677;DHT22;27789;50.840;4.386;2024-01-15T14:22:32;5.90;99.90
39677;DHT22;27789;50.840;4.386;2024-01-15T14:24:57;5.90;99.90
39677;DHT22;27789;50.840;4.386;2024-01-15T14:27:23;6.00;99.90
39677;DHT22;27789;50.840;4.386;2024-01-15T14:29:48;5.90;99.90
39677;DHT22;27789;50.840;4.386;2024-01-15T14:32:14;5.90;99.90
39677;DHT22;27789;50.840;4.386;2024-01-15T14:34:39;5.90;99.90
39677;DHT22;27789;50.840;4.386;2024-01-15T14:37:05;5.90;99.90
39677;DHT22;27789;50.840;4.386;2024-01-15T14:39:31;5.80;99.90
39677;DHT22;27789;50.840;4.386;2024-01-15T14:41:59;5.50;99.90
39677;DHT22;27789;50.840;4.386;2024-01-15T14:44:25;5.20;99.90
39677;DHT22;27789;50.840;4.386;2024-01-15T14:46:50;5.00;99.90
39677;DHT22;27789;50.840;4.386;2024-01-15T14:49:15;4.90;99.90
39677;DHT22;27789;50.840;4.386;2024-01-15T14:51:42;4.80;99.90
39677;DHT22;27789;50.840;4.386;2024-01-15T14:54:09;4.80;99.90
39677;DHT22;27789;50.840;4.386;2024-01-15T14:56:35;4.80;99.90
39677;DHT22;27789;50.840;4.386;2024-01-15T14:59:00;4.70;99.90
39677;DHT22;27789;50.840;4.386;2024-01-15T15:01:26;4.70;99.90
39677;DHT22;27789;50.840;4.386;2024-01-15T15:03:51;4.70;99.90
39677;DHT22;27789;50.840;4.386;2024-01-15T15:06:17;4.70;99.90
39677;DHT22;27789;50.840;4.386;2024-01-15T15:08:43;4.70;99.90
39677;DHT22;27789;50.840;4.386;2024-01-15T15:11:08;4.70;99.90
39677;DHT22;27789;50.840;4.386;2024-01-15T15:13:34;4.60;99.90
39677;DHT22;27789;50.840;4.386;2024-01-15T15:16:00;4.50;99.90
39677;DHT22;27789;50.840;4.386;2024-01-15T15:18:25;4.50;99.90
39677;DHT22;27789;50.840;4.386;2024-01-15T15:20:51;4.50;99.90
39677;DHT22;27789;50.840;4.386;2024-01-15T15:23:17;4.50;99.90
39677;DHT22;27789;50.840;4.386;2024-01-15T15:25:43;4.40;99.90
39677;DHT22;27789;50.840;4.386;2024-01-15T15:28:08;4.50;99.90
39677;DHT22;27789;50.840;4.386;2024-01-15T15:30:35;4.50;99.90
39677;DHT22;27789;50.840;4.386;2024-01-15T15:33:00;4.50;99.90
39677;DHT22;27789;50.840;4.386;2024-01-15T15:35:26;4.50;99.90
39677;DHT22;27789;50.840;4.386;2024-01-15T15:37:51;4.50;99.90
39677;DHT22;27789;50.840;4.386;2024-01-15T15:40:17;4.60;99.90
39677;DHT22;27789;50.840;4.386;2024-01-15T15:42:42;4.70;99.90
39677;DHT22;27789;50.840;4.386;2024-01-15T15:45:08;4.60;99.90
39677;DHT22;27789;50.840;4.386;2024-01-15T15:47:35;4.60;99.90
39677;DHT22;27789;50.840;4.386;2024-01-15T15:50:00;4.50;99.90